createdAt,value
2019-04-29T00:00:51.931Z,2.10
2019-04-29T00:03:20.869Z,2.17
2019-04-29T00:05:50.020Z,2.20
2019-04-29T00:08:19.540Z,2.37
2019-04-29T00:10:48.203Z,2.17
2019-04-29T00:13:17.069Z,2.05
2019-04-29T00:15:49.982Z,2.35
2019-04-29T00:18:25.979Z,2.35
2019-04-29T00:20:54.430Z,2.30
2019-04-29T00:23:22.924Z,2.62
2019-04-29T00:25:51.501Z,2.58
2019-04-29T00:28:19.978Z,2.50
2019-04-29T00:30:48.415Z,3.85
2019-04-29T00:33:16.967Z,2.77
2019-04-29T00:35:45.407Z,2.62
2019-04-29T00:38:15.530Z,2.25
2019-04-29T00:41:03.366Z,2.20
2019-04-29T00:43:51.704Z,2.35
2019-04-29T00:46:20.299Z,3.00
2019-04-29T00:48:49.108Z,2.98
2019-04-29T00:51:17.667Z,2.77
2019-04-29T00:53:47.214Z,2.00
2019-04-29T00:56:15.682Z,2.72
2019-04-29T00:58:44.086Z,2.10
2019-04-29T01:01:14.347Z,2.15
2019-04-29T01:03:42.759Z,3.02
2019-04-29T01:06:11.274Z,3.00
2019-04-29T01:08:39.825Z,2.95
2019-04-29T01:11:08.376Z,2.50
2019-04-29T01:13:36.906Z,2.62
2019-04-29T01:16:05.401Z,3.40
2019-04-29T01:18:33.816Z,3.15
2019-04-29T01:21:02.278Z,3.00
2019-04-29T01:23:30.692Z,2.62
2019-04-29T01:26:00.751Z,2.35
2019-04-29T01:28:30.904Z,3.10
2019-04-29T01:31:02.994Z,2.52
2019-04-29T01:33:31.581Z,3.55
2019-04-29T01:36:17.526Z,2.80
2019-04-29T01:38:48.824Z,3.27
2019-04-29T01:41:19.287Z,2.70
2019-04-29T01:44:01.357Z,2.75
2019-04-29T01:46:30.427Z,3.10
2019-04-29T01:48:58.918Z,2.80
2019-04-29T01:51:27.471Z,2.95
2019-04-29T01:53:55.907Z,3.77
2019-04-29T01:56:24.464Z,3.92
2019-04-29T01:58:53.327Z,4.35
2019-04-29T02:01:21.932Z,4.25
2019-04-29T02:03:50.441Z,5.03
2019-04-29T02:06:18.953Z,4.42
2019-04-29T02:08:48.097Z,4.70
2019-04-29T02:11:16.516Z,3.87
2019-04-29T02:13:45.013Z,3.22
2019-04-29T02:16:13.434Z,3.52
2019-04-29T02:18:41.949Z,4.00
2019-04-29T02:21:10.435Z,4.50
2019-04-29T02:23:40.510Z,4.97
2019-04-29T02:26:08.946Z,4.97
2019-04-29T02:28:37.383Z,5.75
2019-04-29T02:31:23.636Z,6.35
2019-04-29T02:33:52.076Z,5.50
2019-04-29T02:36:20.504Z,5.58
2019-04-29T02:38:56.972Z,6.08
2019-04-29T02:41:36.337Z,6.05
2019-04-29T02:44:07.032Z,5.75
2019-04-29T02:46:35.494Z,6.03
2019-04-29T02:49:04.052Z,5.33
2019-04-29T02:51:46.442Z,5.30
2019-04-29T02:54:15.326Z,4.80
2019-04-29T02:56:48.139Z,5.25
2019-04-29T02:59:21.261Z,5.70
2019-04-29T03:02:07.493Z,4.87
2019-04-29T03:04:54.160Z,4.90
2019-04-29T03:07:22.927Z,6.70
2019-04-29T03:09:51.462Z,5.95
2019-04-29T03:12:20.123Z,6.72
2019-04-29T03:14:48.636Z,5.62
2019-04-29T03:17:18.877Z,6.87
2019-04-29T03:20:05.542Z,5.53
2019-04-29T03:22:34.397Z,5.10
2019-04-29T03:25:02.916Z,6.40
2019-04-29T03:27:31.332Z,7.33
2019-04-29T03:29:59.786Z,6.80
2019-04-29T03:32:28.209Z,5.58
2019-04-29T03:34:56.673Z,6.25
2019-04-29T03:37:25.099Z,5.62
2019-04-29T03:39:53.612Z,5.33
2019-04-29T03:42:22.166Z,5.08
2019-04-29T03:44:50.697Z,4.75
2019-04-29T03:47:19.362Z,3.92
2019-04-29T03:49:47.898Z,4.95
2019-04-29T03:52:16.360Z,5.30
2019-04-29T03:54:44.859Z,4.60
2019-04-29T03:57:14.875Z,9.05
2019-04-29T03:59:43.392Z,15.53
2019-04-29T04:02:13.462Z,13.80
2019-04-29T04:04:58.653Z,7.95
2019-04-29T04:07:28.885Z,8.10
2019-04-29T04:09:57.315Z,6.20
2019-04-29T04:12:25.773Z,5.28
2019-04-29T04:14:54.255Z,5.40
2019-04-29T04:17:32.943Z,4.90
2019-04-29T04:20:01.441Z,5.17
2019-04-29T04:22:31.524Z,4.12
2019-04-29T04:25:00.035Z,4.60
2019-04-29T04:27:28.513Z,4.55
2019-04-29T04:29:57.051Z,4.65
2019-04-29T04:32:25.579Z,4.20
2019-04-29T04:34:53.985Z,4.00
2019-04-29T04:37:22.438Z,4.10
2019-04-29T04:39:51.173Z,5.12
2019-04-29T04:42:19.688Z,4.25
2019-04-29T04:44:48.286Z,4.40
2019-04-29T04:47:18.732Z,4.50
2019-04-29T04:49:47.591Z,4.22
2019-04-29T04:52:16.066Z,3.85
2019-04-29T04:54:46.238Z,4.80
2019-04-29T04:57:14.817Z,4.50
2019-04-29T04:59:43.342Z,4.83
2019-04-29T05:02:11.919Z,5.08
2019-04-29T05:04:40.439Z,5.20
2019-04-29T05:07:08.919Z,4.67
2019-04-29T05:09:37.385Z,5.03
2019-04-29T05:12:05.857Z,4.40
2019-04-29T05:14:34.289Z,4.12
2019-04-29T05:17:02.818Z,3.72
2019-04-29T05:19:31.306Z,4.05
2019-04-29T05:21:59.926Z,3.95
2019-04-29T05:24:28.362Z,3.90
2019-04-29T05:26:56.818Z,4.15
2019-04-29T05:29:28.463Z,3.70
2019-04-29T05:31:55.481Z,4.10
2019-04-29T05:34:25.606Z,5.28
2019-04-29T05:36:55.680Z,33.55
2019-04-29T05:39:28.571Z,29.40
2019-04-29T05:41:57.056Z,20.57
2019-04-29T05:44:32.860Z,16.82
2019-04-29T05:47:08.744Z,17.00
2019-04-29T05:49:41.957Z,14.05
2019-04-29T05:52:34.823Z,12.05
2019-04-29T05:55:01.534Z,10.93
2019-04-29T05:57:30.108Z,6.92
2019-04-29T05:59:58.533Z,11.05
2019-04-29T06:02:34.481Z,10.72
2019-04-29T06:04:57.166Z,5.45
2019-04-29T06:07:26.914Z,3.62
2019-04-29T06:09:55.547Z,4.35
2019-04-29T06:12:23.972Z,4.42
2019-04-29T06:14:52.422Z,3.27
2019-04-29T06:17:20.914Z,3.35
2019-04-29T06:19:49.362Z,4.35
2019-04-29T06:22:17.847Z,3.30
2019-04-29T06:24:46.290Z,3.75
2019-04-29T06:27:14.810Z,3.10
2019-04-29T06:29:43.331Z,2.80
2019-04-29T06:32:11.822Z,3.33
2019-04-29T06:34:41.724Z,3.62
2019-04-29T06:37:10.349Z,2.45
2019-04-29T06:39:38.801Z,2.72
2019-04-29T06:42:07.308Z,2.50
2019-04-29T06:44:35.729Z,3.10
2019-04-29T06:47:04.250Z,2.42
2019-04-29T06:49:32.710Z,2.20
2019-04-29T06:52:01.231Z,2.55
2019-04-29T06:54:29.637Z,3.33
2019-04-29T06:56:58.155Z,3.58
2019-04-29T06:59:26.557Z,4.50
2019-04-29T07:01:55.019Z,5.55
2019-04-29T07:04:23.520Z,4.20
2019-04-29T07:06:57.564Z,5.20
2019-04-29T07:09:22.264Z,6.08
2019-04-29T07:11:50.810Z,6.45
2019-04-29T07:14:19.292Z,7.20
2019-04-29T07:16:47.778Z,10.80
2019-04-29T07:19:16.202Z,11.28
2019-04-29T07:21:47.061Z,10.05
2019-04-29T07:24:14.984Z,9.20
2019-04-29T07:26:43.426Z,10.18
2019-04-29T07:29:11.907Z,11.40
2019-04-29T07:31:40.334Z,9.35
2019-04-29T07:34:08.768Z,9.75
2019-04-29T07:36:37.504Z,10.18
2019-04-29T07:39:07.256Z,8.18
2019-04-29T07:41:35.767Z,10.38
2019-04-29T07:44:04.373Z,8.75
2019-04-29T07:46:48.994Z,8.95
2019-04-29T07:49:05.802Z,8.55
2019-04-29T07:51:34.711Z,7.60
2019-04-29T07:54:04.660Z,7.53
2019-04-29T07:56:33.193Z,8.78
2019-04-29T07:59:02.971Z,7.95
2019-04-29T08:01:31.850Z,8.25
2019-04-29T08:04:00.371Z,9.50
2019-04-29T08:06:29.543Z,8.10
2019-04-29T08:09:07.429Z,6.95
2019-04-29T08:11:30.532Z,6.83
2019-04-29T08:14:01.275Z,8.30
2019-04-29T08:16:29.720Z,7.65
2019-04-29T08:18:58.169Z,6.85
2019-04-29T08:21:26.849Z,9.10
2019-04-29T08:23:55.389Z,9.88
2019-04-29T08:26:23.850Z,6.45
2019-04-29T08:28:59.942Z,7.30
2019-04-29T08:31:22.717Z,7.25
2019-04-29T08:33:51.241Z,6.47
2019-04-29T08:36:19.748Z,7.47
2019-04-29T08:38:48.243Z,6.80
2019-04-29T08:41:21.545Z,5.83
2019-04-29T08:43:52.217Z,6.28
2019-04-29T08:46:29.028Z,5.92
2019-04-29T08:49:01.149Z,5.15
2019-04-29T08:51:27.747Z,5.80
2019-04-29T08:53:56.165Z,5.53
2019-04-29T08:56:24.684Z,5.62
2019-04-29T08:58:53.174Z,5.05
2019-04-29T09:01:24.518Z,4.80
2019-04-29T09:03:53.770Z,4.90
2019-04-29T09:06:21.925Z,4.85
2019-04-29T09:08:55.310Z,5.67
2019-04-29T09:11:20.532Z,4.60
2019-04-29T09:13:48.958Z,5.60
2019-04-29T09:16:17.503Z,5.25
2019-04-29T09:18:45.954Z,4.95
2019-04-29T09:21:14.384Z,5.20
2019-04-29T09:23:42.869Z,5.22
2019-04-29T09:26:31.016Z,4.85
2019-04-29T09:29:03.948Z,5.03
2019-04-29T09:31:31.277Z,5.00
2019-04-29T09:34:06.856Z,5.50
2019-04-29T09:36:29.964Z,5.20
2019-04-29T09:38:58.393Z,5.10
2019-04-29T09:41:40.772Z,4.60
2019-04-29T09:44:27.132Z,5.05
2019-04-29T09:46:55.658Z,4.60
2019-04-29T09:49:24.225Z,4.55
2019-04-29T09:51:52.698Z,4.33
2019-04-29T09:54:21.144Z,4.90
2019-04-29T09:56:49.605Z,5.03
2019-04-29T09:59:31.814Z,4.40
2019-04-29T10:02:10.822Z,4.03
2019-04-29T10:04:59.385Z,4.05
2019-04-29T10:07:28.292Z,4.03
2019-04-29T10:09:57.732Z,3.87
2019-04-29T10:12:26.850Z,4.25
2019-04-29T10:14:55.300Z,3.50
2019-04-29T10:17:45.819Z,4.58
2019-04-29T10:20:14.240Z,3.85
2019-04-29T10:22:42.725Z,4.35
2019-04-29T10:25:11.487Z,5.08
2019-04-29T10:27:39.975Z,3.72
2019-04-29T10:30:09.737Z,3.47
2019-04-29T10:32:42.344Z,3.40
2019-04-29T10:35:10.548Z,3.30
2019-04-29T10:37:38.828Z,4.03
2019-04-29T10:40:16.054Z,3.40
2019-04-29T10:42:48.823Z,4.03
2019-04-29T10:45:21.940Z,4.67
2019-04-29T10:47:54.796Z,4.80
2019-04-29T10:50:30.382Z,3.62
2019-04-29T10:52:59.057Z,3.90
2019-04-29T10:55:30.101Z,3.87
2019-04-29T10:57:58.175Z,4.85
2019-04-29T11:00:58.463Z,3.22
2019-04-29T11:03:27.205Z,7.08
2019-04-29T11:06:00.614Z,3.80
2019-04-29T11:08:27.677Z,3.08
2019-04-29T11:11:02.398Z,3.20
2019-04-29T11:13:27.384Z,4.03
2019-04-29T11:15:55.923Z,3.20
2019-04-29T11:18:25.135Z,3.15
2019-04-29T11:20:55.470Z,3.75
2019-04-29T11:23:25.600Z,4.03
2019-04-29T11:25:58.659Z,3.87
2019-04-29T11:28:28.125Z,3.80
2019-04-29T11:30:56.643Z,3.40
2019-04-29T11:33:39.990Z,3.75
2019-04-29T11:36:10.977Z,3.08
2019-04-29T11:38:41.005Z,3.62
2019-04-29T11:41:12.199Z,3.30
2019-04-29T11:43:40.143Z,3.72
2019-04-29T11:46:09.968Z,3.60
2019-04-29T11:48:38.999Z,3.60
2019-04-29T11:51:21.529Z,3.50
2019-04-29T11:53:50.384Z,3.35
2019-04-29T11:56:18.885Z,3.72
2019-04-29T11:58:58.151Z,3.30
2019-04-29T12:01:38.730Z,3.92
2019-04-29T12:04:15.398Z,3.00
2019-04-29T12:06:43.996Z,3.17
2019-04-29T12:09:12.804Z,3.33
2019-04-29T12:11:41.574Z,3.50
2019-04-29T12:14:11.739Z,3.20
2019-04-29T12:16:54.535Z,3.80
2019-04-29T12:19:34.978Z,3.50
2019-04-29T12:22:04.899Z,3.40
2019-04-29T12:24:34.547Z,3.95
2019-04-29T12:27:04.147Z,3.60
2019-04-29T12:29:32.740Z,3.70
2019-04-29T12:32:02.805Z,3.62
2019-04-29T12:34:32.939Z,3.75
2019-04-29T12:37:01.641Z,3.00
2019-04-29T12:39:43.385Z,3.92
2019-04-29T12:42:26.073Z,3.22
2019-04-29T12:44:56.212Z,4.10
2019-04-29T12:47:32.768Z,3.80
2019-04-29T12:50:01.701Z,3.87
2019-04-29T12:52:30.237Z,3.75
2019-04-29T12:55:03.139Z,3.35
2019-04-29T12:57:28.908Z,3.67
2019-04-29T12:59:57.505Z,4.62
2019-04-29T13:02:36.620Z,4.15
2019-04-29T13:05:09.588Z,3.60
2019-04-29T13:07:43.220Z,3.47
2019-04-29T13:10:16.596Z,3.08
2019-04-29T13:12:46.210Z,3.40
2019-04-29T13:15:25.573Z,4.30
2019-04-29T13:18:03.115Z,3.40
2019-04-29T13:20:25.886Z,3.15
2019-04-29T13:22:54.349Z,3.45
2019-04-29T13:25:22.883Z,2.80
2019-04-29T13:27:51.552Z,3.08
2019-04-29T13:30:20.046Z,2.62
2019-04-29T13:32:48.605Z,2.35
2019-04-29T13:35:17.599Z,2.50
2019-04-29T13:37:46.204Z,2.55
2019-04-29T13:40:15.662Z,3.30
2019-04-29T13:42:48.516Z,3.40
2019-04-29T13:45:20.134Z,3.15
2019-04-29T13:48:01.768Z,3.30
2019-04-29T13:50:39.351Z,2.90
2019-04-29T13:53:02.175Z,4.40
2019-04-29T13:55:48.301Z,2.40
2019-04-29T13:58:00.832Z,2.22
2019-04-29T14:00:47.558Z,2.52
2019-04-29T14:03:18.017Z,2.40
2019-04-29T14:05:46.431Z,2.67
2019-04-29T14:08:14.936Z,2.50
2019-04-29T14:10:46.783Z,2.10
2019-04-29T14:13:18.766Z,2.45
2019-04-29T14:15:44.037Z,2.62
2019-04-29T14:18:13.754Z,2.25
2019-04-29T14:20:42.239Z,2.40
2019-04-29T14:23:10.790Z,2.50
2019-04-29T14:25:39.325Z,2.42
2019-04-29T14:28:07.775Z,3.60
2019-04-29T14:30:39.011Z,6.45
2019-04-29T14:33:06.572Z,6.05
2019-04-29T14:35:43.894Z,2.80
2019-04-29T14:38:13.581Z,2.20
2019-04-29T14:40:42.769Z,4.20
2019-04-29T14:43:32.038Z,3.75
2019-04-29T14:46:02.184Z,7.67
2019-04-29T14:48:42.089Z,3.50
2019-04-29T14:51:02.576Z,2.83
2019-04-29T14:53:31.013Z,2.33
2019-04-29T14:55:59.549Z,2.35
2019-04-29T14:58:27.983Z,2.50
2019-04-29T15:00:58.607Z,2.33
2019-04-29T15:03:46.688Z,2.20
2019-04-29T15:06:15.430Z,2.45
2019-04-29T15:08:43.932Z,2.55
2019-04-29T15:11:12.401Z,2.60
2019-04-29T15:13:43.143Z,2.30
2019-04-29T15:16:14.050Z,2.72
2019-04-29T15:18:51.212Z,2.33
2019-04-29T15:21:32.762Z,2.60
2019-04-29T15:23:57.598Z,3.27
2019-04-29T15:26:26.035Z,2.52
2019-04-29T15:28:54.508Z,2.65
2019-04-29T15:31:24.052Z,3.17
2019-04-29T15:33:52.601Z,3.30
2019-04-29T15:36:21.120Z,2.62
2019-04-29T15:39:08.219Z,2.27
2019-04-29T15:41:20.103Z,2.30
2019-04-29T15:43:48.795Z,2.50
2019-04-29T15:46:17.395Z,2.40
2019-04-29T15:48:46.001Z,2.83
2019-04-29T15:51:14.873Z,2.83
2019-04-29T15:53:43.350Z,2.40
2019-04-29T15:56:27.577Z,3.00
2019-04-29T15:58:42.535Z,2.60
2019-04-29T16:01:17.221Z,2.70
2019-04-29T16:03:41.452Z,2.80
2019-04-29T16:06:21.152Z,2.65
2019-04-29T16:08:59.100Z,2.87
2019-04-29T16:11:47.761Z,2.72
2019-04-29T16:14:17.964Z,2.67
2019-04-29T16:16:46.414Z,2.52
2019-04-29T16:19:14.918Z,2.80
2019-04-29T16:21:43.331Z,3.17
2019-04-29T16:24:25.675Z,3.75
2019-04-29T16:26:41.960Z,2.90
2019-04-29T16:29:13.340Z,3.45
2019-04-29T16:31:40.960Z,2.98
2019-04-29T16:34:09.879Z,2.85
2019-04-29T16:36:43.638Z,3.00
2019-04-29T16:39:08.959Z,4.80
2019-04-29T16:41:39.071Z,4.95
2019-04-29T16:44:33.499Z,4.08
2019-04-29T16:46:39.459Z,5.05
2019-04-29T16:49:07.904Z,6.12
2019-04-29T16:51:36.394Z,3.98
2019-04-29T16:54:04.979Z,4.20
2019-04-29T16:56:33.501Z,3.75
2019-04-29T16:59:09.170Z,2.77
2019-04-29T17:01:32.615Z,5.85
2019-04-29T17:04:05.282Z,4.33
2019-04-29T17:06:35.893Z,4.78
2019-04-29T17:09:05.426Z,4.83
2019-04-29T17:11:38.134Z,4.15
2019-04-29T17:14:10.193Z,3.20
2019-04-29T17:16:37.213Z,5.90
2019-04-29T17:19:05.724Z,3.75
2019-04-29T17:21:34.325Z,3.55
2019-04-29T17:24:02.845Z,4.55
2019-04-29T17:26:48.286Z,3.58
2019-04-29T17:29:38.646Z,2.60
2019-04-29T17:31:57.969Z,2.58
2019-04-29T17:34:58.428Z,2.30
2019-04-29T17:37:07.570Z,3.20
2019-04-29T17:39:36.107Z,2.90
2019-04-29T17:42:04.656Z,4.10
2019-04-29T17:44:40.921Z,3.25
2019-04-29T17:47:13.751Z,4.05
2019-04-29T17:49:52.624Z,4.05
2019-04-29T17:52:22.849Z,3.95
2019-04-29T17:54:54.961Z,4.20
2019-04-29T17:57:31.245Z,3.95
2019-04-29T18:00:15.925Z,3.42
2019-04-29T18:02:52.530Z,4.40
2019-04-29T18:05:32.977Z,4.83
2019-04-29T18:07:59.197Z,4.92
2019-04-29T18:10:29.744Z,5.70
2019-04-29T18:12:58.241Z,3.83
2019-04-29T18:15:40.411Z,3.80
2019-04-29T18:18:00.350Z,4.92
2019-04-29T18:20:42.786Z,5.90
2019-04-29T18:23:24.876Z,6.70
2019-04-29T18:26:00.901Z,5.25
2019-04-29T18:28:29.430Z,4.35
2019-04-29T18:30:58.063Z,4.25
2019-04-29T18:33:30.211Z,4.37
2019-04-29T18:36:04.122Z,4.83
2019-04-29T18:38:26.860Z,4.97
2019-04-29T18:40:55.855Z,5.03
2019-04-29T18:43:26.507Z,4.10
2019-04-29T18:45:58.346Z,6.97
2019-04-29T18:48:26.893Z,7.67
2019-04-29T18:50:56.920Z,5.95
2019-04-29T18:53:25.629Z,4.37
2019-04-29T18:55:55.071Z,4.60
2019-04-29T18:58:24.916Z,5.12
2019-04-29T19:00:56.234Z,4.35
2019-04-29T19:03:29.679Z,5.65
2019-04-29T19:05:57.456Z,4.47
2019-04-29T19:08:28.579Z,3.95
2019-04-29T19:10:56.352Z,4.42
2019-04-29T19:13:26.057Z,4.40
2019-04-29T19:16:08.381Z,5.10
2019-04-29T19:18:25.493Z,3.72
2019-04-29T19:20:56.498Z,4.00
2019-04-29T19:23:27.933Z,3.77
2019-04-29T19:25:54.541Z,3.50
2019-04-29T19:28:30.713Z,3.50
2019-04-29T19:30:56.074Z,3.62
2019-04-29T19:33:25.248Z,3.65
2019-04-29T19:35:55.379Z,3.80
2019-04-29T19:38:25.313Z,3.75
2019-04-29T19:40:54.029Z,3.67
2019-04-29T19:43:22.685Z,4.10
2019-04-29T19:45:51.165Z,4.42
2019-04-29T19:48:22.604Z,4.60
2019-04-29T19:51:12.918Z,5.00
2019-04-29T19:53:20.048Z,4.60
2019-04-29T19:55:48.583Z,5.20
2019-04-29T19:58:17.861Z,4.35
2019-04-29T20:00:48.350Z,4.97
2019-04-29T20:03:23.472Z,5.17
2019-04-29T20:05:49.966Z,4.90
2019-04-29T20:08:37.599Z,4.58
2019-04-29T20:10:51.572Z,4.70
2019-04-29T20:13:19.584Z,4.47
2019-04-29T20:15:50.565Z,5.10
2019-04-29T20:18:40.264Z,5.53
2019-04-29T20:21:09.731Z,4.92
2019-04-29T20:23:39.683Z,6.30
2019-04-29T20:26:15.592Z,5.85
2019-04-29T20:28:38.559Z,5.47
2019-04-29T20:31:16.344Z,5.85
2019-04-29T20:33:37.734Z,4.80
2019-04-29T20:36:06.659Z,4.70
2019-04-29T20:38:38.911Z,4.40
2019-04-29T20:41:08.020Z,5.10
2019-04-29T20:43:36.181Z,4.35
2019-04-29T20:46:05.055Z,4.58
2019-04-29T20:48:36.765Z,4.65
2019-04-29T20:51:11.576Z,4.80
2019-04-29T20:53:46.082Z,4.92
2019-04-29T20:56:24.155Z,5.97
2019-04-29T20:58:46.823Z,5.25
2019-04-29T21:01:16.976Z,6.17
2019-04-29T21:03:51.099Z,5.65
2019-04-29T21:06:15.665Z,5.80
2019-04-29T21:08:45.001Z,5.33
2019-04-29T21:11:21.103Z,5.70
2019-04-29T21:13:55.976Z,6.28
2019-04-29T21:16:29.084Z,7.12
2019-04-29T21:18:57.143Z,6.67
2019-04-29T21:21:25.678Z,5.95
2019-04-29T21:23:55.303Z,5.37
2019-04-29T21:26:26.073Z,5.35
2019-04-29T21:28:55.548Z,5.78
2019-04-29T21:31:25.514Z,4.83
2019-04-29T21:33:57.146Z,5.87
2019-04-29T21:36:26.623Z,4.85
2019-04-29T21:39:01.963Z,5.22
2019-04-29T21:41:35.946Z,5.40
2019-04-29T21:44:05.954Z,4.95
2019-04-29T21:46:35.099Z,5.30
2019-04-29T21:49:11.401Z,5.60
2019-04-29T21:51:35.515Z,6.05
2019-04-29T21:54:04.070Z,6.20
2019-04-29T21:56:32.506Z,6.15
2019-04-29T21:59:02.610Z,6.28
2019-04-29T22:01:34.282Z,5.70
2019-04-29T22:04:02.089Z,6.00
2019-04-29T22:06:31.746Z,6.17
2019-04-29T22:09:01.210Z,5.90
2019-04-29T22:11:30.405Z,5.90
2019-04-29T22:13:58.827Z,5.72
2019-04-29T22:16:27.716Z,5.75
2019-04-29T22:18:56.319Z,6.03
2019-04-29T22:21:26.022Z,5.25
2019-04-29T22:23:55.283Z,5.70
2019-04-29T22:26:26.890Z,6.75
2019-04-29T22:29:01.593Z,6.72
2019-04-29T22:31:28.384Z,6.65
2019-04-29T22:33:55.329Z,6.22
2019-04-29T22:36:25.035Z,6.60
2019-04-29T22:38:53.644Z,7.60
2019-04-29T22:41:26.712Z,8.33
2019-04-29T22:43:56.990Z,7.47
2019-04-29T22:46:25.609Z,8.98
2019-04-29T22:48:55.760Z,9.00
2019-04-29T22:51:25.472Z,9.13
2019-04-29T22:53:55.691Z,8.65
2019-04-29T22:56:27.625Z,8.93
2019-04-29T22:58:55.957Z,9.08
2019-04-29T23:01:25.964Z,9.25
2019-04-29T23:03:55.368Z,8.08
2019-04-29T23:06:25.827Z,8.88
2019-04-29T23:08:56.115Z,8.03
2019-04-29T23:11:24.736Z,8.85
2019-04-29T23:13:53.206Z,7.65
2019-04-29T23:16:21.618Z,7.85
2019-04-29T23:18:50.026Z,7.90
2019-04-29T23:21:37.477Z,7.90
2019-04-29T23:24:13.289Z,7.50
2019-04-29T23:26:42.258Z,7.40
2019-04-29T23:29:10.395Z,8.35
2019-04-29T23:31:38.827Z,8.70
2019-04-29T23:34:07.284Z,8.70
2019-04-29T23:36:35.695Z,7.50
2019-04-29T23:39:05.423Z,8.05
2019-04-29T23:41:36.536Z,8.88
2019-04-29T23:44:08.632Z,8.88
2019-04-29T23:46:34.480Z,9.15
2019-04-29T23:49:06.501Z,8.30
2019-04-29T23:51:37.626Z,9.63
2019-04-29T23:54:07.848Z,9.30
2019-04-29T23:56:38.517Z,10.03
2019-04-29T23:59:14.789Z,8.95
